sensor_id;sensor_type;location;lat;lon;timestamp;P1;durP1;ratioP1;P2;durP2;ratioP2
54125;SDS011;40360;52.992;6.796;2023-05-14T00:00:47;15.25;;;12.68;;
54125;SDS011;40360;52.992;6.796;2023-05-14T00:03:13;18.50;;;13.35;;
54125;SDS011;40360;52.992;6.796;2023-05-14T00:05:38;19.30;;;12.40;;
54125;SDS011;40360;52.992;6.796;2023-05-14T00:08:04;19.20;;;13.85;;
54125;SDS011;40360;52.992;6.796;2023-05-14T00:10:30;23.00;;;13.52;;
54125;SDS011;40360;52.992;6.796;2023-05-14T00:12:55;20.80;;;13.30;;
54125;SDS011;40360;52.992;6.796;2023-05-14T00:15:21;20.48;;;14.48;;
54125;SDS011;40360;52.992;6.796;2023-05-14T00:17:47;23.38;;;14.00;;
54125;SDS011;40360;52.992;6.796;2023-05-14T00:20:12;21.50;;;13.93;;
54125;SDS011;40360;52.992;6.796;2023-05-14T00:22:38;25.83;;;13.63;;
54125;SDS011;40360;52.992;6.796;2023-05-14T00:25:05;17.98;;;12.90;;
54125;SDS011;40360;52.992;6.796;2023-05-14T00:27:31;21.40;;;13.50;;
54125;SDS011;40360;52.992;6.796;2023-05-14T00:29:58;23.27;;;13.05;;
54125;SDS011;40360;52.992;6.796;2023-05-14T00:32:23;22.48;;;14.35;;
54125;SDS011;40360;52.992;6.796;2023-05-14T00:34:49;21.55;;;12.60;;
54125;SDS011;40360;52.992;6.796;2023-05-14T00:37:15;24.85;;;13.75;;
54125;SDS011;40360;52.992;6.796;2023-05-14T00:39:40;21.73;;;15.43;;
54125;SDS011;40360;52.992;6.796;2023-05-14T00:42:06;21.50;;;13.85;;
54125;SDS011;40360;52.992;6.796;2023-05-14T00:44:31;21.08;;;13.32;;
54125;SDS011;40360;52.992;6.796;2023-05-14T00:46:57;20.58;;;14.35;;
54125;SDS011;40360;52.992;6.796;2023-05-14T00:49:24;22.67;;;14.32;;
54125;SDS011;40360;52.992;6.796;2023-05-14T00:51:50;22.70;;;14.75;;
54125;SDS011;40360;52.992;6.796;2023-05-14T00:54:16;20.90;;;14.30;;
54125;SDS011;40360;52.992;6.796;2023-05-14T00:56:44;22.08;;;14.90;;
54125;SDS011;40360;52.992;6.796;2023-05-14T00:59:10;21.30;;;14.65;;
54125;SDS011;40360;52.992;6.796;2023-05-14T01:01:36;21.08;;;14.45;;
54125;SDS011;40360;52.992;6.796;2023-05-14T01:04:01;19.02;;;15.05;;
54125;SDS011;40360;52.992;6.796;2023-05-14T01:09:15;19.70;;;16.25;;
54125;SDS011;40360;52.992;6.796;2023-05-14T01:11:58;19.05;;;14.55;;
54125;SDS011;40360;52.992;6.796;2023-05-14T01:15:00;22.88;;;14.88;;
54125;SDS011;40360;52.992;6.796;2023-05-14T01:17:47;24.15;;;16.88;;
54125;SDS011;40360;52.992;6.796;2023-05-14T01:20:17;24.52;;;16.23;;
54125;SDS011;40360;52.992;6.796;2023-05-14T01:22:43;28.35;;;15.68;;
54125;SDS011;40360;52.992;6.796;2023-05-14T01:25:09;24.30;;;15.23;;
54125;SDS011;40360;52.992;6.796;2023-05-14T01:27:37;19.75;;;15.95;;
54125;SDS011;40360;52.992;6.796;2023-05-14T01:30:12;25.52;;;15.95;;
54125;SDS011;40360;52.992;6.796;2023-05-14T01:32:57;19.23;;;15.43;;
54125;SDS011;40360;52.992;6.796;2023-05-14T01:35:25;21.90;;;16.42;;
54125;SDS011;40360;52.992;6.796;2023-05-14T01:37:56;23.73;;;16.38;;
54125;SDS011;40360;52.992;6.796;2023-05-14T01:40:24;24.90;;;16.30;;
54125;SDS011;40360;52.992;6.796;2023-05-14T01:42:50;21.00;;;15.43;;
54125;SDS011;40360;52.992;6.796;2023-05-14T01:45:20;21.95;;;16.48;;
54125;SDS011;40360;52.992;6.796;2023-05-14T01:47:47;26.15;;;17.15;;
54125;SDS011;40360;52.992;6.796;2023-05-14T01:50:13;26.27;;;17.15;;
54125;SDS011;40360;52.992;6.796;2023-05-14T01:52:39;22.88;;;16.48;;
54125;SDS011;40360;52.992;6.796;2023-05-14T01:55:04;24.70;;;16.83;;
54125;SDS011;40360;52.992;6.796;2023-05-14T01:57:31;20.10;;;16.17;;
54125;SDS011;40360;52.992;6.796;2023-05-14T01:59:56;25.80;;;17.45;;
54125;SDS011;40360;52.992;6.796;2023-05-14T02:02:22;23.92;;;17.17;;
54125;SDS011;40360;52.992;6.796;2023-05-14T02:04:48;21.27;;;15.70;;
54125;SDS011;40360;52.992;6.796;2023-05-14T02:07:14;22.85;;;17.42;;
54125;SDS011;40360;52.992;6.796;2023-05-14T02:09:39;24.27;;;17.70;;
54125;SDS011;40360;52.992;6.796;2023-05-14T02:12:05;22.45;;;17.67;;
54125;SDS011;40360;52.992;6.796;2023-05-14T02:14:32;22.02;;;17.13;;
54125;SDS011;40360;52.992;6.796;2023-05-14T02:16:58;24.58;;;17.10;;
54125;SDS011;40360;52.992;6.796;2023-05-14T02:19:23;26.95;;;18.25;;
54125;SDS011;40360;52.992;6.796;2023-05-14T02:21:49;21.70;;;15.45;;
54125;SDS011;40360;52.992;6.796;2023-05-14T02:24:15;20.38;;;16.05;;
54125;SDS011;40360;52.992;6.796;2023-05-14T02:26:40;27.48;;;17.10;;
54125;SDS011;40360;52.992;6.796;2023-05-14T02:29:06;22.58;;;16.83;;
54125;SDS011;40360;52.992;6.796;2023-05-14T02:31:35;22.35;;;15.93;;
54125;SDS011;40360;52.992;6.796;2023-05-14T02:34:01;21.40;;;15.57;;
54125;SDS011;40360;52.992;6.796;2023-05-14T02:36:28;19.58;;;15.35;;
54125;SDS011;40360;52.992;6.796;2023-05-14T02:38:53;18.02;;;14.85;;
54125;SDS011;40360;52.992;6.796;2023-05-14T02:41:19;17.50;;;14.63;;
54125;SDS011;40360;52.992;6.796;2023-05-14T02:43:45;28.27;;;17.33;;
54125;SDS011;40360;52.992;6.796;2023-05-14T02:46:11;22.00;;;17.45;;
54125;SDS011;40360;52.992;6.796;2023-05-14T02:48:37;23.70;;;16.70;;
54125;SDS011;40360;52.992;6.796;2023-05-14T02:51:02;24.38;;;17.20;;
54125;SDS011;40360;52.992;6.796;2023-05-14T02:53:28;20.10;;;16.60;;
54125;SDS011;40360;52.992;6.796;2023-05-14T02:55:54;26.17;;;17.08;;
54125;SDS011;40360;52.992;6.796;2023-05-14T02:58:20;24.23;;;17.73;;
54125;SDS011;40360;52.992;6.796;2023-05-14T03:00:45;22.98;;;17.13;;
54125;SDS011;40360;52.992;6.796;2023-05-14T03:03:11;26.98;;;18.75;;
54125;SDS011;40360;52.992;6.796;2023-05-14T03:05:37;22.13;;;16.60;;
54125;SDS011;40360;52.992;6.796;2023-05-14T03:08:03;29.35;;;16.88;;
54125;SDS011;40360;52.992;6.796;2023-05-14T03:10:28;27.05;;;16.55;;
54125;SDS011;40360;52.992;6.796;2023-05-14T03:12:57;22.73;;;15.93;;
54125;SDS011;40360;52.992;6.796;2023-05-14T03:15:23;22.30;;;15.68;;
54125;SDS011;40360;52.992;6.796;2023-05-14T03:17:49;24.45;;;15.13;;
54125;SDS011;40360;52.992;6.796;2023-05-14T03:20:15;25.50;;;16.15;;
54125;SDS011;40360;52.992;6.796;2023-05-14T03:22:41;24.45;;;16.35;;
54125;SDS011;40360;52.992;6.796;2023-05-14T03:25:07;23.52;;;16.17;;
54125;SDS011;40360;52.992;6.796;2023-05-14T03:27:32;20.27;;;16.13;;
54125;SDS011;40360;52.992;6.796;2023-05-14T03:29:58;23.50;;;15.68;;
54125;SDS011;40360;52.992;6.796;2023-05-14T03:32:24;25.20;;;16.25;;
54125;SDS011;40360;52.992;6.796;2023-05-14T03:34:50;26.35;;;16.20;;
54125;SDS011;40360;52.992;6.796;2023-05-14T03:37:16;22.25;;;15.30;;
54125;SDS011;40360;52.992;6.796;2023-05-14T03:39:41;25.00;;;14.75;;
54125;SDS011;40360;52.992;6.796;2023-05-14T03:42:07;26.90;;;16.00;;
54125;SDS011;40360;52.992;6.796;2023-05-14T03:44:32;25.20;;;16.95;;
54125;SDS011;40360;52.992;6.796;2023-05-14T03:46:58;23.30;;;15.55;;
54125;SDS011;40360;52.992;6.796;2023-05-14T03:49:24;22.20;;;15.32;;
54125;SDS011;40360;52.992;6.796;2023-05-14T03:51:49;26.23;;;16.17;;
54125;SDS011;40360;52.992;6.796;2023-05-14T03:54:15;21.35;;;14.73;;
54125;SDS011;40360;52.992;6.796;2023-05-14T03:56:41;22.10;;;16.02;;
54125;SDS011;40360;52.992;6.796;2023-05-14T03:59:06;22.08;;;15.60;;
54125;SDS011;40360;52.992;6.796;2023-05-14T04:01:32;26.10;;;15.25;;
54125;SDS011;40360;52.992;6.796;2023-05-14T04:03:58;18.17;;;13.45;;
54125;SDS011;40360;52.992;6.796;2023-05-14T04:06:23;21.38;;;13.80;;
54125;SDS011;40360;52.992;6.796;2023-05-14T04:08:49;23.67;;;14.93;;
54125;SDS011;40360;52.992;6.796;2023-05-14T04:11:15;20.90;;;15.48;;
54125;SDS011;40360;52.992;6.796;2023-05-14T04:13:40;20.17;;;14.80;;
54125;SDS011;40360;52.992;6.796;2023-05-14T04:16:06;24.45;;;14.93;;
54125;SDS011;40360;52.992;6.796;2023-05-14T04:18:32;25.48;;;15.48;;
54125;SDS011;40360;52.992;6.796;2023-05-14T04:20:59;20.90;;;15.05;;
54125;SDS011;40360;52.992;6.796;2023-05-14T04:23:25;23.73;;;16.05;;
54125;SDS011;40360;52.992;6.796;2023-05-14T04:25:51;26.10;;;15.82;;
54125;SDS011;40360;52.992;6.796;2023-05-14T04:28:16;20.63;;;14.32;;
54125;SDS011;40360;52.992;6.796;2023-05-14T04:30:42;22.88;;;15.48;;
54125;SDS011;40360;52.992;6.796;2023-05-14T04:33:08;19.67;;;15.30;;
54125;SDS011;40360;52.992;6.796;2023-05-14T04:35:34;21.70;;;15.65;;
54125;SDS011;40360;52.992;6.796;2023-05-14T04:37:59;21.65;;;15.65;;
54125;SDS011;40360;52.992;6.796;2023-05-14T04:40:27;20.85;;;14.82;;
54125;SDS011;40360;52.992;6.796;2023-05-14T04:42:52;23.42;;;16.48;;
54125;SDS011;40360;52.992;6.796;2023-05-14T04:45:18;23.63;;;16.55;;
54125;SDS011;40360;52.992;6.796;2023-05-14T04:47:44;24.75;;;16.63;;
54125;SDS011;40360;52.992;6.796;2023-05-14T04:50:10;28.65;;;16.52;;
54125;SDS011;40360;52.992;6.796;2023-05-14T04:52:36;20.98;;;15.57;;
54125;SDS011;40360;52.992;6.796;2023-05-14T04:55:02;27.33;;;16.63;;
54125;SDS011;40360;52.992;6.796;2023-05-14T04:57:28;20.98;;;16.70;;
54125;SDS011;40360;52.992;6.796;2023-05-14T04:59:54;21.23;;;15.07;;
54125;SDS011;40360;52.992;6.796;2023-05-14T05:02:20;27.92;;;16.65;;
54125;SDS011;40360;52.992;6.796;2023-05-14T05:04:45;22.52;;;14.93;;
54125;SDS011;40360;52.992;6.796;2023-05-14T05:07:11;25.55;;;17.10;;
54125;SDS011;40360;52.992;6.796;2023-05-14T05:09:38;24.10;;;16.27;;
54125;SDS011;40360;52.992;6.796;2023-05-14T05:12:03;24.38;;;17.20;;
54125;SDS011;40360;52.992;6.796;2023-05-14T05:14:29;23.67;;;16.70;;
54125;SDS011;40360;52.992;6.796;2023-05-14T05:16:55;27.20;;;16.90;;
54125;SDS011;40360;52.992;6.796;2023-05-14T05:19:21;23.52;;;16.58;;
54125;SDS011;40360;52.992;6.796;2023-05-14T05:21:46;24.80;;;16.80;;
54125;SDS011;40360;52.992;6.796;2023-05-14T05:24:15;22.38;;;16.58;;
54125;SDS011;40360;52.992;6.796;2023-05-14T05:26:41;28.30;;;18.20;;
54125;SDS011;40360;52.992;6.796;2023-05-14T05:29:06;22.45;;;13.95;;
54125;SDS011;40360;52.992;6.796;2023-05-14T05:31:32;25.98;;;16.05;;
54125;SDS011;40360;52.992;6.796;2023-05-14T05:33:58;23.90;;;16.10;;
54125;SDS011;40360;52.992;6.796;2023-05-14T05:36:24;24.60;;;16.40;;
54125;SDS011;40360;52.992;6.796;2023-05-14T05:38:50;26.35;;;16.98;;
54125;SDS011;40360;52.992;6.796;2023-05-14T05:41:16;25.40;;;16.27;;
54125;SDS011;40360;52.992;6.796;2023-05-14T06:02:08;21.75;;;15.43;;
54125;SDS011;40360;52.992;6.796;2023-05-14T06:04:34;29.05;;;17.30;;
54125;SDS011;40360;52.992;6.796;2023-05-14T06:07:00;29.35;;;17.63;;
54125;SDS011;40360;52.992;6.796;2023-05-14T06:09:25;29.00;;;17.88;;
54125;SDS011;40360;52.992;6.796;2023-05-14T06:11:51;33.35;;;18.50;;
54125;SDS011;40360;52.992;6.796;2023-05-14T06:14:17;29.88;;;17.13;;
54125;SDS011;40360;52.992;6.796;2023-05-14T06:16:42;30.17;;;19.35;;
54125;SDS011;40360;52.992;6.796;2023-05-14T06:19:08;23.27;;;16.65;;
54125;SDS011;40360;52.992;6.796;2023-05-14T06:21:34;29.73;;;16.85;;
54125;SDS011;40360;52.992;6.796;2023-05-14T06:23:59;24.95;;;15.60;;
54125;SDS011;40360;52.992;6.796;2023-05-14T06:26:25;27.58;;;16.15;;
54125;SDS011;40360;52.992;6.796;2023-05-14T06:28:51;30.15;;;16.45;;
54125;SDS011;40360;52.992;6.796;2023-05-14T06:31:17;24.95;;;17.77;;
54125;SDS011;40360;52.992;6.796;2023-05-14T06:33:43;27.40;;;17.05;;
54125;SDS011;40360;52.992;6.796;2023-05-14T06:36:09;25.00;;;15.88;;
54125;SDS011;40360;52.992;6.796;2023-05-14T06:38:35;23.80;;;15.60;;
54125;SDS011;40360;52.992;6.796;2023-05-14T06:41:01;21.30;;;15.45;;
54125;SDS011;40360;52.992;6.796;2023-05-14T06:43:27;24.48;;;14.43;;
54125;SDS011;40360;52.992;6.796;2023-05-14T06:45:52;26.77;;;16.27;;
54125;SDS011;40360;52.992;6.796;2023-05-14T06:48:19;27.42;;;15.07;;
54125;SDS011;40360;52.992;6.796;2023-05-14T06:50:45;24.67;;;16.15;;
54125;SDS011;40360;52.992;6.796;2023-05-14T06:53:11;28.70;;;15.57;;
54125;SDS011;40360;52.992;6.796;2023-05-14T06:55:38;25.25;;;15.13;;
54125;SDS011;40360;52.992;6.796;2023-05-14T06:58:07;26.02;;;14.35;;
54125;SDS011;40360;52.992;6.796;2023-05-14T07:00:33;22.92;;;13.60;;
54125;SDS011;40360;52.992;6.796;2023-05-14T07:02:58;23.35;;;12.30;;
54125;SDS011;40360;52.992;6.796;2023-05-14T07:05:24;22.17;;;12.98;;
54125;SDS011;40360;52.992;6.796;2023-05-14T07:07:50;18.95;;;12.65;;
54125;SDS011;40360;52.992;6.796;2023-05-14T07:10:16;23.30;;;14.48;;
54125;SDS011;40360;52.992;6.796;2023-05-14T07:12:42;22.27;;;12.40;;
54125;SDS011;40360;52.992;6.796;2023-05-14T07:15:08;20.77;;;13.15;;
54125;SDS011;40360;52.992;6.796;2023-05-14T07:17:34;16.55;;;12.02;;
54125;SDS011;40360;52.992;6.796;2023-05-14T07:19:59;22.38;;;14.43;;
54125;SDS011;40360;52.992;6.796;2023-05-14T07:22:25;24.48;;;12.80;;
54125;SDS011;40360;52.992;6.796;2023-05-14T07:24:50;18.88;;;11.60;;
54125;SDS011;40360;52.992;6.796;2023-05-14T07:27:16;21.75;;;12.57;;
54125;SDS011;40360;52.992;6.796;2023-05-14T07:29:42;16.30;;;11.63;;
54125;SDS011;40360;52.992;6.796;2023-05-14T07:32:08;20.85;;;11.27;;
54125;SDS011;40360;52.992;6.796;2023-05-14T07:34:33;26.83;;;12.50;;
54125;SDS011;40360;52.992;6.796;2023-05-14T07:36:59;20.08;;;12.10;;
54125;SDS011;40360;52.992;6.796;2023-05-14T07:39:25;20.23;;;11.13;;
54125;SDS011;40360;52.992;6.796;2023-05-14T07:41:51;17.20;;;11.55;;
54125;SDS011;40360;52.992;6.796;2023-05-14T07:44:18;19.05;;;11.40;;
54125;SDS011;40360;52.992;6.796;2023-05-14T07:46:44;18.65;;;11.75;;
54125;SDS011;40360;52.992;6.796;2023-05-14T07:49:10;18.30;;;12.60;;
54125;SDS011;40360;52.992;6.796;2023-05-14T07:51:36;20.08;;;11.32;;
54125;SDS011;40360;52.992;6.796;2023-05-14T07:54:02;19.73;;;11.50;;
54125;SDS011;40360;52.992;6.796;2023-05-14T07:56:27;18.95;;;10.43;;
54125;SDS011;40360;52.992;6.796;2023-05-14T07:58:53;18.83;;;11.23;;
54125;SDS011;40360;52.992;6.796;2023-05-14T08:01:18;20.08;;;10.52;;
54125;SDS011;40360;52.992;6.796;2023-05-14T08:03:44;16.38;;;10.48;;
54125;SDS011;40360;52.992;6.796;2023-05-14T08:06:10;19.30;;;9.82;;
54125;SDS011;40360;52.992;6.796;2023-05-14T08:08:36;18.92;;;9.88;;
54125;SDS011;40360;52.992;6.796;2023-05-14T08:11:02;14.48;;;9.23;;
54125;SDS011;40360;52.992;6.796;2023-05-14T08:13:28;18.00;;;9.88;;
54125;SDS011;40360;52.992;6.796;2023-05-14T08:15:54;18.95;;;9.93;;
54125;SDS011;40360;52.992;6.796;2023-05-14T08:18:20;21.35;;;9.63;;
54125;SDS011;40360;52.992;6.796;2023-05-14T08:20:45;18.50;;;9.77;;
54125;SDS011;40360;52.992;6.796;2023-05-14T08:23:11;16.60;;;9.70;;
54125;SDS011;40360;52.992;6.796;2023-05-14T08:25:36;17.65;;;10.60;;
54125;SDS011;40360;52.992;6.796;2023-05-14T08:28:02;22.35;;;10.10;;
54125;SDS011;40360;52.992;6.796;2023-05-14T08:30:28;23.75;;;12.15;;
54125;SDS011;40360;52.992;6.796;2023-05-14T08:32:54;19.58;;;12.25;;
54125;SDS011;40360;52.992;6.796;2023-05-14T08:35:20;23.30;;;12.95;;
54125;SDS011;40360;52.992;6.796;2023-05-14T08:37:45;15.85;;;11.20;;
54125;SDS011;40360;52.992;6.796;2023-05-14T08:40:11;16.08;;;12.32;;
54125;SDS011;40360;52.992;6.796;2023-05-14T08:42:37;18.92;;;11.32;;
54125;SDS011;40360;52.992;6.796;2023-05-14T08:45:17;20.17;;;11.25;;
54125;SDS011;40360;52.992;6.796;2023-05-14T08:47:48;16.65;;;11.27;;
54125;SDS011;40360;52.992;6.796;2023-05-14T08:50:14;20.05;;;13.60;;
54125;SDS011;40360;52.992;6.796;2023-05-14T08:52:41;16.73;;;12.52;;
54125;SDS011;40360;52.992;6.796;2023-05-14T08:55:06;16.08;;;12.98;;
54125;SDS011;40360;52.992;6.796;2023-05-14T08:57:33;12.15;;;10.45;;
54125;SDS011;40360;52.992;6.796;2023-05-14T09:00:00;13.80;;;12.07;;
54125;SDS011;40360;52.992;6.796;2023-05-14T09:02:30;17.60;;;12.68;;
54125;SDS011;40360;52.992;6.796;2023-05-14T09:04:58;18.25;;;12.43;;
54125;SDS011;40360;52.992;6.796;2023-05-14T09:07:24;16.83;;;11.15;;
54125;SDS011;40360;52.992;6.796;2023-05-14T09:09:51;15.10;;;10.98;;
54125;SDS011;40360;52.992;6.796;2023-05-14T09:12:17;15.93;;;12.15;;
54125;SDS011;40360;52.992;6.796;2023-05-14T09:14:43;14.98;;;11.20;;
54125;SDS011;40360;52.992;6.796;2023-05-14T09:17:10;12.95;;;11.05;;
54125;SDS011;40360;52.992;6.796;2023-05-14T09:19:39;15.10;;;11.38;;
54125;SDS011;40360;52.992;6.796;2023-05-14T09:22:10;15.10;;;11.18;;
54125;SDS011;40360;52.992;6.796;2023-05-14T09:24:37;14.77;;;11.90;;
54125;SDS011;40360;52.992;6.796;2023-05-14T09:27:03;14.15;;;11.20;;
54125;SDS011;40360;52.992;6.796;2023-05-14T09:29:30;12.93;;;11.38;;
54125;SDS011;40360;52.992;6.796;2023-05-14T09:31:57;13.05;;;11.00;;
54125;SDS011;40360;52.992;6.796;2023-05-14T09:34:27;18.60;;;11.57;;
54125;SDS011;40360;52.992;6.796;2023-05-14T09:36:55;12.93;;;10.48;;
54125;SDS011;40360;52.992;6.796;2023-05-14T09:39:26;12.05;;;9.73;;
54125;SDS011;40360;52.992;6.796;2023-05-14T09:41:52;12.43;;;10.13;;
54125;SDS011;40360;52.992;6.796;2023-05-14T09:44:18;16.70;;;11.05;;
54125;SDS011;40360;52.992;6.796;2023-05-14T09:46:44;14.15;;;11.63;;
54125;SDS011;40360;52.992;6.796;2023-05-14T09:49:11;11.65;;;9.75;;
54125;SDS011;40360;52.992;6.796;2023-05-14T09:51:36;12.27;;;9.10;;
54125;SDS011;40360;52.992;6.796;2023-05-14T09:54:03;10.23;;;9.20;;
54125;SDS011;40360;52.992;6.796;2023-05-14T09:56:29;12.45;;;9.52;;
54125;SDS011;40360;52.992;6.796;2023-05-14T09:58:56;12.43;;;9.10;;
54125;SDS011;40360;52.992;6.796;2023-05-14T10:01:22;14.52;;;9.85;;
54125;SDS011;40360;52.992;6.796;2023-05-14T10:03:49;12.88;;;9.98;;
54125;SDS011;40360;52.992;6.796;2023-05-14T10:06:16;11.20;;;8.32;;
54125;SDS011;40360;52.992;6.796;2023-05-14T10:08:46;10.38;;;7.72;;
54125;SDS011;40360;52.992;6.796;2023-05-14T10:11:19;11.38;;;7.75;;
54125;SDS011;40360;52.992;6.796;2023-05-14T10:13:55;12.38;;;7.45;;
54125;SDS011;40360;52.992;6.796;2023-05-14T10:16:33;11.85;;;7.32;;
54125;SDS011;40360;52.992;6.796;2023-05-14T10:19:09;11.50;;;6.97;;
54125;SDS011;40360;52.992;6.796;2023-05-14T10:21:36;8.13;;;6.32;;
54125;SDS011;40360;52.992;6.796;2023-05-14T10:24:04;11.13;;;7.07;;
54125;SDS011;40360;52.992;6.796;2023-05-14T10:26:31;7.85;;;6.32;;
54125;SDS011;40360;52.992;6.796;2023-05-14T10:29:01;9.15;;;5.50;;
54125;SDS011;40360;52.992;6.796;2023-05-14T10:37:03;7.75;;;5.95;;
54125;SDS011;40360;52.992;6.796;2023-05-14T10:39:49;7.82;;;5.00;;
54125;SDS011;40360;52.992;6.796;2023-05-14T10:44:47;8.50;;;4.97;;
54125;SDS011;40360;52.992;6.796;2023-05-14T10:47:13;7.75;;;5.38;;
54125;SDS011;40360;52.992;6.796;2023-05-14T10:49:41;11.52;;;5.55;;
54125;SDS011;40360;52.992;6.796;2023-05-14T10:52:08;9.60;;;5.97;;
54125;SDS011;40360;52.992;6.796;2023-05-14T10:54:35;9.65;;;4.90;;
54125;SDS011;40360;52.992;6.796;2023-05-14T10:57:01;7.70;;;4.28;;
54125;SDS011;40360;52.992;6.796;2023-05-14T10:59:26;5.70;;;4.47;;
54125;SDS011;40360;52.992;6.796;2023-05-14T11:01:52;6.45;;;4.55;;
54125;SDS011;40360;52.992;6.796;2023-05-14T11:04:18;7.70;;;4.70;;
54125;SDS011;40360;52.992;6.796;2023-05-14T11:06:47;6.90;;;5.10;;
54125;SDS011;40360;52.992;6.796;2023-05-14T11:09:15;8.73;;;4.78;;
54125;SDS011;40360;52.992;6.796;2023-05-14T11:11:41;6.35;;;4.25;;
54125;SDS011;40360;52.992;6.796;2023-05-14T11:14:08;6.90;;;4.85;;
54125;SDS011;40360;52.992;6.796;2023-05-14T11:16:34;5.60;;;4.03;;
54125;SDS011;40360;52.992;6.796;2023-05-14T11:19:00;7.78;;;3.50;;
54125;SDS011;40360;52.992;6.796;2023-05-14T11:21:27;8.05;;;3.90;;
54125;SDS011;40360;52.992;6.796;2023-05-14T11:23:54;6.75;;;4.13;;
54125;SDS011;40360;52.992;6.796;2023-05-14T11:26:20;6.70;;;3.80;;
54125;SDS011;40360;52.992;6.796;2023-05-14T11:28:48;6.35;;;3.50;;
54125;SDS011;40360;52.992;6.796;2023-05-14T11:31:13;6.88;;;3.55;;
54125;SDS011;40360;52.992;6.796;2023-05-14T11:33:39;9.45;;;4.20;;
54125;SDS011;40360;52.992;6.796;2023-05-14T11:36:06;4.40;;;3.63;;
54125;SDS011;40360;52.992;6.796;2023-05-14T11:38:31;5.00;;;3.17;;
54125;SDS011;40360;52.992;6.796;2023-05-14T11:40:58;7.32;;;4.03;;
54125;SDS011;40360;52.992;6.796;2023-05-14T11:43:24;6.97;;;4.47;;
54125;SDS011;40360;52.992;6.796;2023-05-14T11:45:53;4.53;;;4.13;;
54125;SDS011;40360;52.992;6.796;2023-05-14T11:48:19;6.57;;;3.85;;
54125;SDS011;40360;52.992;6.796;2023-05-14T11:50:46;6.20;;;3.92;;
54125;SDS011;40360;52.992;6.796;2023-05-14T11:55:52;10.95;;;4.28;;
54125;SDS011;40360;52.992;6.796;2023-05-14T11:58:19;7.82;;;3.28;;
54125;SDS011;40360;52.992;6.796;2023-05-14T12:00:45;4.72;;;3.70;;
54125;SDS011;40360;52.992;6.796;2023-05-14T12:03:14;4.78;;;3.08;;
54125;SDS011;40360;52.992;6.796;2023-05-14T12:05:40;7.72;;;4.05;;
54125;SDS011;40360;52.992;6.796;2023-05-14T12:08:26;4.95;;;3.30;;
54125;SDS011;40360;52.992;6.796;2023-05-14T12:10:54;7.32;;;3.50;;
54125;SDS011;40360;52.992;6.796;2023-05-14T12:13:26;6.25;;;3.22;;
54125;SDS011;40360;52.992;6.796;2023-05-14T12:15:55;5.97;;;4.03;;
54125;SDS011;40360;52.992;6.796;2023-05-14T12:18:27;5.40;;;2.85;;
54125;SDS011;40360;52.992;6.796;2023-05-14T12:20:54;4.07;;;3.25;;
54125;SDS011;40360;52.992;6.796;2023-05-14T12:23:29;7.78;;;3.42;;
54125;SDS011;40360;52.992;6.796;2023-05-14T12:26:02;5.97;;;3.97;;
54125;SDS011;40360;52.992;6.796;2023-05-14T12:28:30;7.18;;;4.38;;
54125;SDS011;40360;52.992;6.796;2023-05-14T12:30:56;7.95;;;3.80;;
54125;SDS011;40360;52.992;6.796;2023-05-14T12:33:23;6.38;;;4.63;;
54125;SDS011;40360;52.992;6.796;2023-05-14T12:35:51;6.07;;;4.18;;
54125;SDS011;40360;52.992;6.796;2023-05-14T12:38:18;5.47;;;3.60;;
54125;SDS011;40360;52.992;6.796;2023-05-14T12:40:43;4.65;;;3.40;;
54125;SDS011;40360;52.992;6.796;2023-05-14T12:43:09;7.65;;;3.13;;
54125;SDS011;40360;52.992;6.796;2023-05-14T12:45:34;5.40;;;3.38;;
54125;SDS011;40360;52.992;6.796;2023-05-14T12:48:00;5.32;;;3.65;;
54125;SDS011;40360;52.992;6.796;2023-05-14T12:50:26;4.47;;;3.15;;
54125;SDS011;40360;52.992;6.796;2023-05-14T12:52:52;6.43;;;3.50;;
54125;SDS011;40360;52.992;6.796;2023-05-14T12:55:17;6.47;;;3.28;;
54125;SDS011;40360;52.992;6.796;2023-05-14T12:57:43;6.20;;;3.03;;
54125;SDS011;40360;52.992;6.796;2023-05-14T13:00:09;4.72;;;3.15;;
54125;SDS011;40360;52.992;6.796;2023-05-14T13:02:35;5.57;;;3.35;;
54125;SDS011;40360;52.992;6.796;2023-05-14T13:05:01;5.00;;;3.15;;
54125;SDS011;40360;52.992;6.796;2023-05-14T13:07:27;4.50;;;3.42;;
54125;SDS011;40360;52.992;6.796;2023-05-14T13:09:54;6.80;;;3.05;;
54125;SDS011;40360;52.992;6.796;2023-05-14T13:12:21;5.97;;;2.83;;
54125;SDS011;40360;52.992;6.796;2023-05-14T13:14:47;5.00;;;3.65;;
54125;SDS011;40360;52.992;6.796;2023-05-14T13:17:13;3.55;;;2.70;;
54125;SDS011;40360;52.992;6.796;2023-05-14T13:19:38;6.38;;;3.80;;
54125;SDS011;40360;52.992;6.796;2023-05-14T13:22:04;8.63;;;3.35;;
54125;SDS011;40360;52.992;6.796;2023-05-14T13:24:30;3.85;;;3.22;;
54125;SDS011;40360;52.992;6.796;2023-05-14T13:26:55;3.33;;;3.03;;
54125;SDS011;40360;52.992;6.796;2023-05-14T13:29:21;4.63;;;3.00;;
54125;SDS011;40360;52.992;6.796;2023-05-14T13:31:46;5.47;;;3.03;;
54125;SDS011;40360;52.992;6.796;2023-05-14T13:34:12;5.97;;;3.08;;
54125;SDS011;40360;52.992;6.796;2023-05-14T13:36:38;5.80;;;3.28;;
54125;SDS011;40360;52.992;6.796;2023-05-14T13:39:06;4.22;;;3.22;;
54125;SDS011;40360;52.992;6.796;2023-05-14T13:41:32;7.43;;;3.08;;
54125;SDS011;40360;52.992;6.796;2023-05-14T13:43:59;7.55;;;3.42;;
54125;SDS011;40360;52.992;6.796;2023-05-14T13:46:25;4.50;;;3.30;;
54125;SDS011;40360;52.992;6.796;2023-05-14T13:48:50;3.65;;;3.28;;
54125;SDS011;40360;52.992;6.796;2023-05-14T13:51:16;5.13;;;3.75;;
54125;SDS011;40360;52.992;6.796;2023-05-14T13:53:42;6.43;;;3.75;;
54125;SDS011;40360;52.992;6.796;2023-05-14T13:56:08;7.38;;;3.60;;
54125;SDS011;40360;52.992;6.796;2023-05-14T13:58:34;4.85;;;3.28;;
54125;SDS011;40360;52.992;6.796;2023-05-14T14:01:00;4.85;;;3.17;;
54125;SDS011;40360;52.992;6.796;2023-05-14T14:03:25;8.35;;;4.70;;
54125;SDS011;40360;52.992;6.796;2023-05-14T14:05:51;9.00;;;3.80;;
54125;SDS011;40360;52.992;6.796;2023-05-14T14:08:17;5.88;;;3.25;;
54125;SDS011;40360;52.992;6.796;2023-05-14T14:10:43;9.32;;;5.22;;
54125;SDS011;40360;52.992;6.796;2023-05-14T14:13:09;6.45;;;3.85;;
54125;SDS011;40360;52.992;6.796;2023-05-14T14:15:35;7.03;;;3.70;;
54125;SDS011;40360;52.992;6.796;2023-05-14T14:18:01;6.63;;;3.72;;
54125;SDS011;40360;52.992;6.796;2023-05-14T14:20:27;6.55;;;5.32;;
54125;SDS011;40360;52.992;6.796;2023-05-14T14:22:53;9.40;;;4.15;;
54125;SDS011;40360;52.992;6.796;2023-05-14T14:25:19;9.02;;;8.13;;
54125;SDS011;40360;52.992;6.796;2023-05-14T14:27:44;4.90;;;4.10;;
54125;SDS011;40360;52.992;6.796;2023-05-14T14:30:10;8.27;;;3.53;;
54125;SDS011;40360;52.992;6.796;2023-05-14T14:32:48;4.45;;;3.60;;
54125;SDS011;40360;52.992;6.796;2023-05-14T14:35:15;6.95;;;3.70;;
54125;SDS011;40360;52.992;6.796;2023-05-14T14:37:41;4.28;;;3.60;;
54125;SDS011;40360;52.992;6.796;2023-05-14T14:40:09;5.68;;;3.30;;
54125;SDS011;40360;52.992;6.796;2023-05-14T14:42:36;4.78;;;3.13;;
54125;SDS011;40360;52.992;6.796;2023-05-14T14:45:05;4.72;;;3.55;;
54125;SDS011;40360;52.992;6.796;2023-05-14T14:47:31;7.13;;;3.78;;
54125;SDS011;40360;52.992;6.796;2023-05-14T14:49:58;5.90;;;3.85;;
54125;SDS011;40360;52.992;6.796;2023-05-14T14:52:23;5.40;;;4.13;;
54125;SDS011;40360;52.992;6.796;2023-05-14T14:54:50;5.30;;;3.47;;
54125;SDS011;40360;52.992;6.796;2023-05-14T14:57:16;4.00;;;3.33;;
54125;SDS011;40360;52.992;6.796;2023-05-14T14:59:41;7.57;;;4.03;;